Alabama Port, Alabama
Current Conditions -  °F | °C
As of 6:53 AM on Monday 22 Dec 2014 (Local Time) from KBFM Reporting Station
Overcast Overcast  
Wind Chill: 58°   Ceiling: 400
Heat Index: 58°   Visibility: 10mi
Dew Point: 57°   Wind: 6mph
Humidity: 97%   Direction: 70°ENE
Pressure: 29.91"   Gusts: NA
Location:  30.4032°N, 88.1801°W
Report Text: KBFM 221253Z AUTO 07005KT 10SM OVC004 14/14 A2991 RMK AO2 RAE14 SLP128 P0000 T01440139
Loading
Personal Weather Stations






























Interactive Weather Map New forecast layout! Learn more

10-Day Weather Forecast

Advertisements
Track Severe Weather on mobile